sensor_id;sensor_type;location;lat;lon;timestamp;temperature;humidity
58517;DHT22;44308;50.810;0.284;2023-03-14T00:01:57;10.50;99.90
58517;DHT22;44308;50.810;0.284;2023-03-14T00:04:23;10.40;99.90
58517;DHT22;44308;50.810;0.284;2023-03-14T00:06:50;10.30;99.90
58517;DHT22;44308;50.810;0.284;2023-03-14T00:09:16;10.40;99.90
58517;DHT22;44308;50.810;0.284;2023-03-14T00:11:42;10.40;99.90
58517;DHT22;44308;50.810;0.284;2023-03-14T00:14:08;10.40;99.90
58517;DHT22;44308;50.810;0.284;2023-03-14T00:16:34;10.40;99.90
58517;DHT22;44308;50.810;0.284;2023-03-14T00:19:00;10.50;99.90
58517;DHT22;44308;50.810;0.284;2023-03-14T00:21:26;10.40;99.90
58517;DHT22;44308;50.810;0.284;2023-03-14T00:23:52;10.50;99.90
58517;DHT22;44308;50.810;0.284;2023-03-14T00:26:20;10.40;99.90
58517;DHT22;44308;50.810;0.284;2023-03-14T00:28:47;10.50;99.90
58517;DHT22;44308;50.810;0.284;2023-03-14T00:31:16;10.50;99.90
58517;DHT22;44308;50.810;0.284;2023-03-14T00:33:43;10.50;99.90
58517;DHT22;44308;50.810;0.284;2023-03-14T00:36:11;10.50;99.90
58517;DHT22;44308;50.810;0.284;2023-03-14T00:38:38;10.50;99.90
58517;DHT22;44308;50.810;0.284;2023-03-14T00:41:09;10.50;99.90
58517;DHT22;44308;50.810;0.284;2023-03-14T00:43:35;10.50;99.90
58517;DHT22;44308;50.810;0.284;2023-03-14T00:46:02;10.50;99.90
58517;DHT22;44308;50.810;0.284;2023-03-14T00:48:28;10.60;99.90
58517;DHT22;44308;50.810;0.284;2023-03-14T00:50:54;10.60;99.90
58517;DHT22;44308;50.810;0.284;2023-03-14T00:53:20;10.60;99.90
58517;DHT22;44308;50.810;0.284;2023-03-14T00:55:46;10.60;99.90
58517;DHT22;44308;50.810;0.284;2023-03-14T00:58:13;10.70;99.90
58517;DHT22;44308;50.810;0.284;2023-03-14T01:00:39;10.70;99.90
58517;DHT22;44308;50.810;0.284;2023-03-14T01:03:06;10.70;99.90
58517;DHT22;44308;50.810;0.284;2023-03-14T01:05:32;10.60;99.90
58517;DHT22;44308;50.810;0.284;2023-03-14T01:07:58;10.70;99.90
58517;DHT22;44308;50.810;0.284;2023-03-14T01:10:24;10.70;99.90
58517;DHT22;44308;50.810;0.284;2023-03-14T01:12:50;10.70;99.90
58517;DHT22;44308;50.810;0.284;2023-03-14T01:15:16;10.70;99.90
58517;DHT22;44308;50.810;0.284;2023-03-14T01:17:42;10.70;99.90
58517;DHT22;44308;50.810;0.284;2023-03-14T01:20:10;10.70;99.90
58517;DHT22;44308;50.810;0.284;2023-03-14T01:22:37;10.70;99.90
58517;DHT22;44308;50.810;0.284;2023-03-14T01:25:09;10.70;99.90
58517;DHT22;44308;50.810;0.284;2023-03-14T01:27:35;10.70;99.90
58517;DHT22;44308;50.810;0.284;2023-03-14T01:30:02;10.80;99.90
58517;DHT22;44308;50.810;0.284;2023-03-14T01:32:28;10.70;99.90
58517;DHT22;44308;50.810;0.284;2023-03-14T01:34:53;10.80;99.90
58517;DHT22;44308;50.810;0.284;2023-03-14T01:37:19;10.80;99.90
58517;DHT22;44308;50.810;0.284;2023-03-14T01:39:46;10.80;99.90
58517;DHT22;44308;50.810;0.284;2023-03-14T01:42:12;10.70;99.90
58517;DHT22;44308;50.810;0.284;2023-03-14T01:47:12;10.70;99.90
58517;DHT22;44308;50.810;0.284;2023-03-14T01:49:38;10.60;99.90
58517;DHT22;44308;50.810;0.284;2023-03-14T01:52:15;10.60;99.90
58517;DHT22;44308;50.810;0.284;2023-03-14T01:54:46;10.60;99.90
58517;DHT22;44308;50.810;0.284;2023-03-14T01:57:26;10.60;99.90
58517;DHT22;44308;50.810;0.284;2023-03-14T02:00:09;10.70;99.90
58517;DHT22;44308;50.810;0.284;2023-03-14T02:02:47;10.60;99.90
58517;DHT22;44308;50.810;0.284;2023-03-14T02:05:26;10.70;99.90
58517;DHT22;44308;50.810;0.284;2023-03-14T02:07:55;10.70;99.90
58517;DHT22;44308;50.810;0.284;2023-03-14T02:10:25;10.70;99.90
58517;DHT22;44308;50.810;0.284;2023-03-14T02:12:54;10.70;99.90
58517;DHT22;44308;50.810;0.284;2023-03-14T02:15:21;10.80;99.90
58517;DHT22;44308;50.810;0.284;2023-03-14T02:17:47;10.70;99.90
58517;DHT22;44308;50.810;0.284;2023-03-14T02:22:50;10.80;99.90
58517;DHT22;44308;50.810;0.284;2023-03-14T02:27:47;10.80;99.90
58517;DHT22;44308;50.810;0.284;2023-03-14T02:32:45;10.80;99.90
58517;DHT22;44308;50.810;0.284;2023-03-14T02:35:15;10.80;99.90
58517;DHT22;44308;50.810;0.284;2023-03-14T02:37:53;10.80;99.90
58517;DHT22;44308;50.810;0.284;2023-03-14T02:40:20;10.00;99.90
58517;DHT22;44308;50.810;0.284;2023-03-14T02:42:46;9.50;99.90
58517;DHT22;44308;50.810;0.284;2023-03-14T02:47:43;9.10;99.90
58517;DHT22;44308;50.810;0.284;2023-03-14T02:50:21;9.00;99.90
58517;DHT22;44308;50.810;0.284;2023-03-14T02:52:48;8.90;99.90
58517;DHT22;44308;50.810;0.284;2023-03-14T02:55:14;8.70;99.90
58517;DHT22;44308;50.810;0.284;2023-03-14T02:57:39;8.70;99.90
58517;DHT22;44308;50.810;0.284;2023-03-14T03:00:06;8.50;99.90
58517;DHT22;44308;50.810;0.284;2023-03-14T03:02:32;8.50;99.90
58517;DHT22;44308;50.810;0.284;2023-03-14T03:04:58;8.50;99.90
58517;DHT22;44308;50.810;0.284;2023-03-14T03:07:24;8.40;99.90
58517;DHT22;44308;50.810;0.284;2023-03-14T03:09:49;8.40;99.90
58517;DHT22;44308;50.810;0.284;2023-03-14T03:12:15;8.40;99.90
58517;DHT22;44308;50.810;0.284;2023-03-14T03:14:41;8.30;99.90
58517;DHT22;44308;50.810;0.284;2023-03-14T03:17:10;8.30;99.90
58517;DHT22;44308;50.810;0.284;2023-03-14T03:19:35;8.30;99.90
58517;DHT22;44308;50.810;0.284;2023-03-14T03:22:01;8.30;99.90
58517;DHT22;44308;50.810;0.284;2023-03-14T03:24:27;8.30;99.90
58517;DHT22;44308;50.810;0.284;2023-03-14T03:26:54;8.30;99.90
58517;DHT22;44308;50.810;0.284;2023-03-14T03:29:19;8.30;99.90
58517;DHT22;44308;50.810;0.284;2023-03-14T03:31:45;8.20;99.90
58517;DHT22;44308;50.810;0.284;2023-03-14T03:34:12;8.10;99.90
58517;DHT22;44308;50.810;0.284;2023-03-14T03:36:39;8.10;99.90
58517;DHT22;44308;50.810;0.284;2023-03-14T03:39:06;8.00;99.90
58517;DHT22;44308;50.810;0.284;2023-03-14T03:41:32;7.90;99.90
58517;DHT22;44308;50.810;0.284;2023-03-14T03:43:58;7.90;99.90
58517;DHT22;44308;50.810;0.284;2023-03-14T03:46:24;7.70;99.90
58517;DHT22;44308;50.810;0.284;2023-03-14T03:49:00;7.70;99.90
58517;DHT22;44308;50.810;0.284;2023-03-14T03:51:26;7.60;99.90
58517;DHT22;44308;50.810;0.284;2023-03-14T03:53:52;7.50;99.90
58517;DHT22;44308;50.810;0.284;2023-03-14T03:56:18;7.50;99.90
58517;DHT22;44308;50.810;0.284;2023-03-14T03:58:43;7.50;99.90
58517;DHT22;44308;50.810;0.284;2023-03-14T04:01:10;7.40;99.90
58517;DHT22;44308;50.810;0.284;2023-03-14T04:03:38;7.50;99.90
58517;DHT22;44308;50.810;0.284;2023-03-14T04:06:10;7.40;99.90
58517;DHT22;44308;50.810;0.284;2023-03-14T04:08:36;7.40;99.90
58517;DHT22;44308;50.810;0.284;2023-03-14T04:11:03;7.40;99.90
58517;DHT22;44308;50.810;0.284;2023-03-14T04:13:29;7.30;99.90
58517;DHT22;44308;50.810;0.284;2023-03-14T04:15:55;7.30;99.90
58517;DHT22;44308;50.810;0.284;2023-03-14T04:18:22;7.20;99.90
58517;DHT22;44308;50.810;0.284;2023-03-14T04:20:57;7.10;99.90
58517;DHT22;44308;50.810;0.284;2023-03-14T04:23:32;7.00;99.90
58517;DHT22;44308;50.810;0.284;2023-03-14T04:25:58;7.00;99.90
58517;DHT22;44308;50.810;0.284;2023-03-14T04:28:24;6.90;99.90
58517;DHT22;44308;50.810;0.284;2023-03-14T04:30:50;6.90;99.90
58517;DHT22;44308;50.810;0.284;2023-03-14T04:33:16;6.90;99.90
58517;DHT22;44308;50.810;0.284;2023-03-14T04:35:44;6.80;99.90
58517;DHT22;44308;50.810;0.284;2023-03-14T04:38:10;6.80;99.90
58517;DHT22;44308;50.810;0.284;2023-03-14T04:40:40;6.70;99.90
58517;DHT22;44308;50.810;0.284;2023-03-14T04:43:10;6.70;99.90
58517;DHT22;44308;50.810;0.284;2023-03-14T04:45:37;6.60;99.90
58517;DHT22;44308;50.810;0.284;2023-03-14T04:48:06;6.60;99.90
58517;DHT22;44308;50.810;0.284;2023-03-14T04:50:32;6.60;99.90
58517;DHT22;44308;50.810;0.284;2023-03-14T04:52:57;6.60;99.90
58517;DHT22;44308;50.810;0.284;2023-03-14T04:55:26;6.50;99.90
58517;DHT22;44308;50.810;0.284;2023-03-14T04:57:51;6.40;99.90
58517;DHT22;44308;50.810;0.284;2023-03-14T05:00:17;6.40;99.90
58517;DHT22;44308;50.810;0.284;2023-03-14T05:02:46;6.30;99.90
58517;DHT22;44308;50.810;0.284;2023-03-14T05:05:11;6.20;99.90
58517;DHT22;44308;50.810;0.284;2023-03-14T05:07:37;6.30;99.90
58517;DHT22;44308;50.810;0.284;2023-03-14T05:10:03;6.20;99.90
58517;DHT22;44308;50.810;0.284;2023-03-14T05:12:29;6.10;99.90
58517;DHT22;44308;50.810;0.284;2023-03-14T05:14:54;6.10;99.90
58517;DHT22;44308;50.810;0.284;2023-03-14T05:17:20;6.10;99.90
58517;DHT22;44308;50.810;0.284;2023-03-14T05:19:49;6.00;99.90
58517;DHT22;44308;50.810;0.284;2023-03-14T05:22:15;5.90;99.90
58517;DHT22;44308;50.810;0.284;2023-03-14T05:24:40;5.90;99.90
58517;DHT22;44308;50.810;0.284;2023-03-14T05:27:07;5.80;99.90
58517;DHT22;44308;50.810;0.284;2023-03-14T05:29:33;5.80;99.90
58517;DHT22;44308;50.810;0.284;2023-03-14T05:31:58;5.70;99.90
58517;DHT22;44308;50.810;0.284;2023-03-14T05:34:24;5.70;99.90
58517;DHT22;44308;50.810;0.284;2023-03-14T05:36:50;5.60;99.90
58517;DHT22;44308;50.810;0.284;2023-03-14T05:39:15;5.60;99.90
58517;DHT22;44308;50.810;0.284;2023-03-14T05:41:41;5.50;99.90
58517;DHT22;44308;50.810;0.284;2023-03-14T05:44:07;5.50;99.90
58517;DHT22;44308;50.810;0.284;2023-03-14T05:46:32;5.50;99.90
58517;DHT22;44308;50.810;0.284;2023-03-14T05:48:59;5.50;99.90
58517;DHT22;44308;50.810;0.284;2023-03-14T05:51:25;5.60;99.90
58517;DHT22;44308;50.810;0.284;2023-03-14T05:53:51;5.50;99.90
58517;DHT22;44308;50.810;0.284;2023-03-14T05:56:21;5.40;99.90
58517;DHT22;44308;50.810;0.284;2023-03-14T05:58:47;5.40;99.90
58517;DHT22;44308;50.810;0.284;2023-03-14T06:01:13;5.30;99.90
58517;DHT22;44308;50.810;0.284;2023-03-14T06:03:41;5.30;99.90
58517;DHT22;44308;50.810;0.284;2023-03-14T06:06:07;5.30;99.90
58517;DHT22;44308;50.810;0.284;2023-03-14T06:08:36;5.30;99.90
58517;DHT22;44308;50.810;0.284;2023-03-14T06:11:03;5.30;99.90
58517;DHT22;44308;50.810;0.284;2023-03-14T06:13:28;5.40;99.90
58517;DHT22;44308;50.810;0.284;2023-03-14T06:15:54;5.30;99.90
58517;DHT22;44308;50.810;0.284;2023-03-14T06:18:21;5.20;99.90
58517;DHT22;44308;50.810;0.284;2023-03-14T06:20:46;5.30;99.90
58517;DHT22;44308;50.810;0.284;2023-03-14T06:23:12;5.30;99.90
58517;DHT22;44308;50.810;0.284;2023-03-14T06:25:38;5.30;99.90
58517;DHT22;44308;50.810;0.284;2023-03-14T06:28:05;5.30;99.90
58517;DHT22;44308;50.810;0.284;2023-03-14T06:30:30;5.30;99.90
58517;DHT22;44308;50.810;0.284;2023-03-14T06:32:56;5.30;99.90
58517;DHT22;44308;50.810;0.284;2023-03-14T06:35:22;5.30;99.90
58517;DHT22;44308;50.810;0.284;2023-03-14T06:37:48;5.30;99.90
58517;DHT22;44308;50.810;0.284;2023-03-14T06:40:14;5.40;99.90
58517;DHT22;44308;50.810;0.284;2023-03-14T06:42:43;5.40;99.90
58517;DHT22;44308;50.810;0.284;2023-03-14T06:45:13;5.40;99.90
58517;DHT22;44308;50.810;0.284;2023-03-14T06:47:38;5.50;99.90
58517;DHT22;44308;50.810;0.284;2023-03-14T06:50:05;5.50;99.90
58517;DHT22;44308;50.810;0.284;2023-03-14T06:52:31;5.50;99.90
58517;DHT22;44308;50.810;0.284;2023-03-14T06:54:57;5.50;99.90
58517;DHT22;44308;50.810;0.284;2023-03-14T06:57:23;5.60;99.90
58517;DHT22;44308;50.810;0.284;2023-03-14T06:59:48;5.60;99.90
58517;DHT22;44308;50.810;0.284;2023-03-14T07:02:14;5.70;99.90
58517;DHT22;44308;50.810;0.284;2023-03-14T07:04:40;5.80;99.90
58517;DHT22;44308;50.810;0.284;2023-03-14T07:07:06;6.20;99.90
58517;DHT22;44308;50.810;0.284;2023-03-14T07:09:32;6.60;99.90
58517;DHT22;44308;50.810;0.284;2023-03-14T07:11:58;7.10;99.90
58517;DHT22;44308;50.810;0.284;2023-03-14T07:14:24;7.40;99.90
58517;DHT22;44308;50.810;0.284;2023-03-14T07:16:50;7.80;99.90
58517;DHT22;44308;50.810;0.284;2023-03-14T07:19:16;8.10;99.90
58517;DHT22;44308;50.810;0.284;2023-03-14T07:21:42;8.20;99.90
58517;DHT22;44308;50.810;0.284;2023-03-14T07:24:07;8.50;99.90
58517;DHT22;44308;50.810;0.284;2023-03-14T07:26:34;8.60;99.90
58517;DHT22;44308;50.810;0.284;2023-03-14T07:29:00;8.70;99.90
58517;DHT22;44308;50.810;0.284;2023-03-14T07:31:31;9.10;99.90
58517;DHT22;44308;50.810;0.284;2023-03-14T07:33:57;9.40;99.90
58517;DHT22;44308;50.810;0.284;2023-03-14T07:36:23;9.30;99.90
58517;DHT22;44308;50.810;0.284;2023-03-14T07:38:49;9.40;99.90
58517;DHT22;44308;50.810;0.284;2023-03-14T07:41:14;9.60;99.90
58517;DHT22;44308;50.810;0.284;2023-03-14T07:43:40;9.80;99.90
58517;DHT22;44308;50.810;0.284;2023-03-14T07:48:43;9.90;99.90
58517;DHT22;44308;50.810;0.284;2023-03-14T07:51:08;10.10;99.90
58517;DHT22;44308;50.810;0.284;2023-03-14T07:53:34;10.00;99.90
58517;DHT22;44308;50.810;0.284;2023-03-14T07:56:00;10.00;99.90
58517;DHT22;44308;50.810;0.284;2023-03-14T07:58:26;9.60;99.90
58517;DHT22;44308;50.810;0.284;2023-03-14T08:00:54;9.30;99.90
58517;DHT22;44308;50.810;0.284;2023-03-14T08:03:23;8.70;99.90
58517;DHT22;44308;50.810;0.284;2023-03-14T08:05:52;8.20;99.90
58517;DHT22;44308;50.810;0.284;2023-03-14T08:08:41;8.00;99.90
58517;DHT22;44308;50.810;0.284;2023-03-14T08:11:09;7.70;99.90
58517;DHT22;44308;50.810;0.284;2023-03-14T08:13:40;7.80;99.90
58517;DHT22;44308;50.810;0.284;2023-03-14T08:16:16;7.90;99.90
58517;DHT22;44308;50.810;0.284;2023-03-14T08:18:43;8.20;99.90
58517;DHT22;44308;50.810;0.284;2023-03-14T08:21:09;8.30;99.90
58517;DHT22;44308;50.810;0.284;2023-03-14T08:23:35;8.30;99.90
58517;DHT22;44308;50.810;0.284;2023-03-14T08:26:00;8.10;99.90
58517;DHT22;44308;50.810;0.284;2023-03-14T08:28:26;8.00;99.90
58517;DHT22;44308;50.810;0.284;2023-03-14T08:30:56;8.00;99.90
58517;DHT22;44308;50.810;0.284;2023-03-14T08:33:23;8.10;99.90
58517;DHT22;44308;50.810;0.284;2023-03-14T08:35:52;8.30;99.90
58517;DHT22;44308;50.810;0.284;2023-03-14T08:38:20;8.40;99.90
58517;DHT22;44308;50.810;0.284;2023-03-14T08:40:46;8.30;99.90
58517;DHT22;44308;50.810;0.284;2023-03-14T08:43:12;8.30;99.90
58517;DHT22;44308;50.810;0.284;2023-03-14T08:45:37;8.40;99.90
58517;DHT22;44308;50.810;0.284;2023-03-14T08:48:03;8.60;99.90
58517;DHT22;44308;50.810;0.284;2023-03-14T08:50:29;8.50;99.90
58517;DHT22;44308;50.810;0.284;2023-03-14T08:52:55;8.40;99.90
58517;DHT22;44308;50.810;0.284;2023-03-14T08:55:23;8.40;99.90
58517;DHT22;44308;50.810;0.284;2023-03-14T08:57:50;8.20;99.90
58517;DHT22;44308;50.810;0.284;2023-03-14T09:00:16;8.00;99.90
58517;DHT22;44308;50.810;0.284;2023-03-14T09:02:42;7.90;99.90
58517;DHT22;44308;50.810;0.284;2023-03-14T09:05:09;7.90;99.90
58517;DHT22;44308;50.810;0.284;2023-03-14T09:07:37;7.90;99.90
58517;DHT22;44308;50.810;0.284;2023-03-14T09:10:03;8.00;99.90
58517;DHT22;44308;50.810;0.284;2023-03-14T09:12:29;8.10;99.90
58517;DHT22;44308;50.810;0.284;2023-03-14T09:14:55;8.20;99.90
58517;DHT22;44308;50.810;0.284;2023-03-14T09:17:22;8.30;99.90
58517;DHT22;44308;50.810;0.284;2023-03-14T09:19:48;8.30;99.90
58517;DHT22;44308;50.810;0.284;2023-03-14T09:22:14;8.30;99.90
58517;DHT22;44308;50.810;0.284;2023-03-14T09:24:40;8.30;99.90
58517;DHT22;44308;50.810;0.284;2023-03-14T09:27:06;8.40;99.90
58517;DHT22;44308;50.810;0.284;2023-03-14T09:29:33;8.60;99.90
58517;DHT22;44308;50.810;0.284;2023-03-14T09:31:59;8.40;99.90
58517;DHT22;44308;50.810;0.284;2023-03-14T09:34:25;8.40;99.90
58517;DHT22;44308;50.810;0.284;2023-03-14T09:36:51;8.40;99.90
58517;DHT22;44308;50.810;0.284;2023-03-14T09:39:17;8.40;99.90
58517;DHT22;44308;50.810;0.284;2023-03-14T09:41:45;8.30;99.90
58517;DHT22;44308;50.810;0.284;2023-03-14T09:44:18;8.30;99.90
58517;DHT22;44308;50.810;0.284;2023-03-14T09:46:49;8.20;99.90
58517;DHT22;44308;50.810;0.284;2023-03-14T09:49:27;8.20;99.90
58517;DHT22;44308;50.810;0.284;2023-03-14T09:51:54;8.30;99.90
58517;DHT22;44308;50.810;0.284;2023-03-14T09:54:35;8.30;99.90
58517;DHT22;44308;50.810;0.284;2023-03-14T09:57:02;8.50;99.90
58517;DHT22;44308;50.810;0.284;2023-03-14T09:59:29;8.50;99.90
58517;DHT22;44308;50.810;0.284;2023-03-14T10:02:00;8.40;99.90
58517;DHT22;44308;50.810;0.284;2023-03-14T10:04:27;8.40;99.90
58517;DHT22;44308;50.810;0.284;2023-03-14T10:06:54;8.50;99.90
58517;DHT22;44308;50.810;0.284;2023-03-14T10:09:22;8.70;99.90
58517;DHT22;44308;50.810;0.284;2023-03-14T10:11:56;8.90;99.90
58517;DHT22;44308;50.810;0.284;2023-03-14T10:14:34;8.70;99.90
58517;DHT22;44308;50.810;0.284;2023-03-14T10:17:12;8.60;99.90
58517;DHT22;44308;50.810;0.284;2023-03-14T10:19:52;8.60;99.90
58517;DHT22;44308;50.810;0.284;2023-03-14T10:22:18;8.40;99.90
58517;DHT22;44308;50.810;0.284;2023-03-14T10:24:56;8.50;99.90
58517;DHT22;44308;50.810;0.284;2023-03-14T10:27:42;9.40;99.90
58517;DHT22;44308;50.810;0.284;2023-03-14T10:30:48;10.20;99.90
58517;DHT22;44308;50.810;0.284;2023-03-14T10:35:56;10.60;99.90
58517;DHT22;44308;50.810;0.284;2023-03-14T10:38:25;10.30;99.90
58517;DHT22;44308;50.810;0.284;2023-03-14T10:40:53;10.10;99.90
58517;DHT22;44308;50.810;0.284;2023-03-14T10:43:23;10.40;99.90
58517;DHT22;44308;50.810;0.284;2023-03-14T10:45:53;10.20;99.90
58517;DHT22;44308;50.810;0.284;2023-03-14T10:51:03;10.30;99.90
58517;DHT22;44308;50.810;0.284;2023-03-14T10:53:34;10.30;99.90
58517;DHT22;44308;50.810;0.284;2023-03-14T10:56:04;10.10;99.90
58517;DHT22;44308;50.810;0.284;2023-03-14T10:58:35;9.80;99.90
58517;DHT22;44308;50.810;0.284;2023-03-14T11:15:09;8.80;99.90
58517;DHT22;44308;50.810;0.284;2023-03-14T11:17:50;9.10;99.90
58517;DHT22;44308;50.810;0.284;2023-03-14T11:23:08;9.20;99.90
58517;DHT22;44308;50.810;0.284;2023-03-14T11:25:46;9.20;99.90
58517;DHT22;44308;50.810;0.284;2023-03-14T11:33:57;9.80;99.90
58517;DHT22;44308;50.810;0.284;2023-03-14T11:39:02;9.70;99.90
58517;DHT22;44308;50.810;0.284;2023-03-14T11:41:46;9.60;99.90
58517;DHT22;44308;50.810;0.284;2023-03-14T11:44:20;10.00;99.90
58517;DHT22;44308;50.810;0.284;2023-03-14T11:49:36;10.10;99.90
58517;DHT22;44308;50.810;0.284;2023-03-14T11:52:24;9.70;99.90
58517;DHT22;44308;50.810;0.284;2023-03-14T11:54:58;9.90;99.90
58517;DHT22;44308;50.810;0.284;2023-03-14T11:57:27;9.90;99.90
58517;DHT22;44308;50.810;0.284;2023-03-14T12:00:17;10.30;99.90
58517;DHT22;44308;50.810;0.284;2023-03-14T12:10:49;10.60;99.90
58517;DHT22;44308;50.810;0.284;2023-03-14T12:13:16;11.10;99.90
58517;DHT22;44308;50.810;0.284;2023-03-14T12:15:54;11.70;99.90
58517;DHT22;44308;50.810;0.284;2023-03-14T12:18:30;11.90;99.90
58517;DHT22;44308;50.810;0.284;2023-03-14T12:21:07;12.00;99.90
58517;DHT22;44308;50.810;0.284;2023-03-14T12:23:54;12.10;99.90
58517;DHT22;44308;50.810;0.284;2023-03-14T12:26:26;11.80;99.90
58517;DHT22;44308;50.810;0.284;2023-03-14T12:29:16;11.90;99.90
58517;DHT22;44308;50.810;0.284;2023-03-14T12:32:05;11.70;99.90
58517;DHT22;44308;50.810;0.284;2023-03-14T12:34:33;12.00;99.90
58517;DHT22;44308;50.810;0.284;2023-03-14T12:40:21;11.60;99.90
58517;DHT22;44308;50.810;0.284;2023-03-14T12:43:00;11.30;99.90
58517;DHT22;44308;50.810;0.284;2023-03-14T12:45:33;11.40;99.90
58517;DHT22;44308;50.810;0.284;2023-03-14T12:48:19;11.60;99.90
58517;DHT22;44308;50.810;0.284;2023-03-14T12:51:02;11.70;99.90
58517;DHT22;44308;50.810;0.284;2023-03-14T13:05:12;11.80;99.90
58517;DHT22;44308;50.810;0.284;2023-03-14T13:12:55;12.90;99.90
58517;DHT22;44308;50.810;0.284;2023-03-14T13:15:39;12.40;99.90
58517;DHT22;44308;50.810;0.284;2023-03-14T13:18:18;12.20;99.90
58517;DHT22;44308;50.810;0.284;2023-03-14T13:20:59;12.20;99.90
58517;DHT22;44308;50.810;0.284;2023-03-14T13:23:29;11.90;99.90
58517;DHT22;44308;50.810;0.284;2023-03-14T13:25:57;11.60;99.90
58517;DHT22;44308;50.810;0.284;2023-03-14T13:28:23;11.70;99.90
58517;DHT22;44308;50.810;0.284;2023-03-14T13:30:54;11.40;99.90
58517;DHT22;44308;50.810;0.284;2023-03-14T13:33:22;11.20;99.90
58517;DHT22;44308;50.810;0.284;2023-03-14T13:36:05;11.00;99.90
58517;DHT22;44308;50.810;0.284;2023-03-14T13:38:35;11.00;99.90
58517;DHT22;44308;50.810;0.284;2023-03-14T13:41:05;11.20;99.90
58517;DHT22;44308;50.810;0.284;2023-03-14T13:43:43;11.70;99.90
58517;DHT22;44308;50.810;0.284;2023-03-14T13:46:17;12.00;99.90
58517;DHT22;44308;50.810;0.284;2023-03-14T13:48:48;11.70;99.90
58517;DHT22;44308;50.810;0.284;2023-03-14T13:51:17;11.50;99.90
58517;DHT22;44308;50.810;0.284;2023-03-14T13:53:47;11.50;99.90
58517;DHT22;44308;50.810;0.284;2023-03-14T13:56:14;11.40;99.90
58517;DHT22;44308;50.810;0.284;2023-03-14T13:58:41;11.20;99.90
58517;DHT22;44308;50.810;0.284;2023-03-14T14:03:45;11.50;99.90
58517;DHT22;44308;50.810;0.284;2023-03-14T14:06:49;11.90;99.90
58517;DHT22;44308;50.810;0.284;2023-03-14T14:09:27;12.30;99.90
58517;DHT22;44308;50.810;0.284;2023-03-14T14:12:02;12.70;99.90
58517;DHT22;44308;50.810;0.284;2023-03-14T14:14:40;12.50;99.90
58517;DHT22;44308;50.810;0.284;2023-03-14T14:17:11;12.40;99.90
58517;DHT22;44308;50.810;0.284;2023-03-14T14:19:38;12.20;99.90
58517;DHT22;44308;50.810;0.284;2023-03-14T14:22:05;12.20;99.90
58517;DHT22;44308;50.810;0.284;2023-03-14T14:24:33;12.40;99.90
58517;DHT22;44308;50.810;0.284;2023-03-14T14:27:17;12.50;99.90
58517;DHT22;44308;50.810;0.284;2023-03-14T14:29:44;12.90;99.90
58517;DHT22;44308;50.810;0.284;2023-03-14T14:32:12;13.00;99.90
58517;DHT22;44308;50.810;0.284;2023-03-14T14:34:46;12.90;99.90
58517;DHT22;44308;50.810;0.284;2023-03-14T14:37:19;13.00;99.90
58517;DHT22;44308;50.810;0.284;2023-03-14T14:39:45;13.00;99.90
58517;DHT22;44308;50.810;0.284;2023-03-14T14:42:15;12.80;99.90
58517;DHT22;44308;50.810;0.284;2023-03-14T14:44:44;13.00;99.90
58517;DHT22;44308;50.810;0.284;2023-03-14T14:47:15;12.90;99.90
58517;DHT22;44308;50.810;0.284;2023-03-14T14:49:43;12.80;99.90
58517;DHT22;44308;50.810;0.284;2023-03-14T14:54:58;13.20;99.90
58517;DHT22;44308;50.810;0.284;2023-03-14T14:57:38;12.60;99.90
58517;DHT22;44308;50.810;0.284;2023-03-14T15:00:20;11.80;99.90
58517;DHT22;44308;50.810;0.284;2023-03-14T15:02:48;11.50;99.90
58517;DHT22;44308;50.810;0.284;2023-03-14T15:05:16;11.00;99.90
58517;DHT22;44308;50.810;0.284;2023-03-14T15:07:42;11.10;99.90
58517;DHT22;44308;50.810;0.284;2023-03-14T15:10:16;10.90;99.90
58517;DHT22;44308;50.810;0.284;2023-03-14T15:12:42;11.00;99.90
58517;DHT22;44308;50.810;0.284;2023-03-14T15:15:09;11.20;99.90
58517;DHT22;44308;50.810;0.284;2023-03-14T15:17:35;11.20;99.90
58517;DHT22;44308;50.810;0.284;2023-03-14T15:20:03;10.90;99.90
58517;DHT22;44308;50.810;0.284;2023-03-14T15:22:32;10.60;99.90
58517;DHT22;44308;50.810;0.284;2023-03-14T15:24:58;10.40;99.90
58517;DHT22;44308;50.810;0.284;2023-03-14T15:27:24;10.50;99.90
58517;DHT22;44308;50.810;0.284;2023-03-14T15:29:50;10.40;99.90
58517;DHT22;44308;50.810;0.284;2023-03-14T15:32:16;10.40;99.90
58517;DHT22;44308;50.810;0.284;2023-03-14T15:34:43;10.60;99.90
58517;DHT22;44308;50.810;0.284;2023-03-14T15:37:14;10.40;99.90
58517;DHT22;44308;50.810;0.284;2023-03-14T15:39:44;10.20;99.90
58517;DHT22;44308;50.810;0.284;2023-03-14T15:42:10;10.00;99.90
58517;DHT22;44308;50.810;0.284;2023-03-14T15:44:36;10.10;99.90
58517;DHT22;44308;50.810;0.284;2023-03-14T15:47:06;10.50;99.90
58517;DHT22;44308;50.810;0.284;2023-03-14T15:49:32;10.80;99.90
58517;DHT22;44308;50.810;0.284;2023-03-14T15:51:58;11.00;99.90
58517;DHT22;44308;50.810;0.284;2023-03-14T15:54:24;11.20;99.90
58517;DHT22;44308;50.810;0.284;2023-03-14T15:56:54;11.10;99.90
58517;DHT22;44308;50.810;0.284;2023-03-14T15:59:21;11.10;99.90
58517;DHT22;44308;50.810;0.284;2023-03-14T16:01:46;11.10;99.90
58517;DHT22;44308;50.810;0.284;2023-03-14T16:04:14;10.90;99.90
58517;DHT22;44308;50.810;0.284;2023-03-14T16:06:40;10.80;99.90
58517;DHT22;44308;50.810;0.284;2023-03-14T16:09:06;10.60;99.90
58517;DHT22;44308;50.810;0.284;2023-03-14T16:11:32;10.30;99.90
58517;DHT22;44308;50.810;0.284;2023-03-14T16:13:58;10.30;99.90
58517;DHT22;44308;50.810;0.284;2023-03-14T16:16:23;10.40;99.90
58517;DHT22;44308;50.810;0.284;2023-03-14T16:18:49;10.40;99.90
58517;DHT22;44308;50.810;0.284;2023-03-14T16:21:17;10.40;99.90
58517;DHT22;44308;50.810;0.284;2023-03-14T16:23:43;10.30;99.90
58517;DHT22;44308;50.810;0.284;2023-03-14T16:26:12;10.10;99.90
58517;DHT22;44308;50.810;0.284;2023-03-14T16:28:43;9.90;99.90
58517;DHT22;44308;50.810;0.284;2023-03-14T16:31:15;9.80;99.90
58517;DHT22;44308;50.810;0.284;2023-03-14T16:33:41;9.70;99.90
58517;DHT22;44308;50.810;0.284;2023-03-14T16:36:10;9.70;99.90
58517;DHT22;44308;50.810;0.284;2023-03-14T16:38:38;9.60;99.90
58517;DHT22;44308;50.810;0.284;2023-03-14T16:41:11;9.50;99.90
58517;DHT22;44308;50.810;0.284;2023-03-14T16:43:38;9.50;99.90
58517;DHT22;44308;50.810;0.284;2023-03-14T16:46:11;9.60;99.90
58517;DHT22;44308;50.810;0.284;2023-03-14T16:48:37;9.50;99.90
58517;DHT22;44308;50.810;0.284;2023-03-14T16:51:03;9.50;99.90
58517;DHT22;44308;50.810;0.284;2023-03-14T16:53:28;9.40;99.90
58517;DHT22;44308;50.810;0.284;2023-03-14T16:55:55;9.40;99.90
58517;DHT22;44308;50.810;0.284;2023-03-14T16:58:21;9.40;99.90
58517;DHT22;44308;50.810;0.284;2023-03-14T17:00:47;9.40;99.90
58517;DHT22;44308;50.810;0.284;2023-03-14T17:03:14;9.30;99.90
58517;DHT22;44308;50.810;0.284;2023-03-14T17:05:48;9.20;99.90
58517;DHT22;44308;50.810;0.284;2023-03-14T17:08:15;9.20;99.90
58517;DHT22;44308;50.810;0.284;2023-03-14T17:10:41;9.20;99.90
58517;DHT22;44308;50.810;0.284;2023-03-14T17:13:07;9.00;99.90